Brisbane - nearby METAR Reports

YBBN - Brisbane Intl Ar, Australia
Distance from station: NNE 11km
Updated: 22/08/2018 03:30
Clear
Clear
 Wind from W
Wind: W 13 km/h
Temperature: 12°C
Dew Point: -4°C
Humidity: 33%
Barometer: 1014 hPa
Summary: Clear
Visibility: greater than 10 km
2018/08/21 17:30 YBBN 211730Z 26007KT CAVOK 12/M04 Q1014 NOSIG
YAMB - Amberley, Australia
Distance from station: WSW 42km
Updated: 22/08/2018 03:30
Clear
Clear
 Wind from calm
Wind: Calm
Temperature: 3°C
Dew Point: -5°C
Humidity: 56%
Barometer: 1015 hPa
Clouds: Clear
Visibility: 10 km
2018/08/21 17:30 YAMB 211730Z AUTO 00000KT 9999 // NCD 03/M05 Q1015
 
YBCG - Coolangatta Aws, Australia
Distance from station: SSE 102km
Updated: 22/08/2018 03:30
Clear
Clear
 Wind from W
Wind: W 4 km/h
Temperature: 3°C
Dew Point: -1°C
Humidity: 75%
Barometer: 1013 hPa
Clouds: Clear
Visibility: 10 km
2018/08/21 17:30 YBCG 211730Z AUTO 28002KT 9999 // NCD 03/M01 Q1013 RF00.0/000.0